Terminal Aerodrome Forecast
Issued by NWS

Home | Current Version | Previous Version | Text Only | Print | Product List | Glossary On
Versions: 1 2 3 4 5 6 7 8 9 10 11 12
000
FTUS41 KBTV 232342
TAFRUT
TAF
KRUT 232342Z 2400/2424 14009G17KT P6SM BKN060
     FM240500 14011G20KT P6SM VCSH OVC050
     FM240700 14012G20KT P6SM VCSH OVC030
     FM241300 15015G24KT 4SM RA BR OVC030
     FM241600 15016G34KT 4SM RA BR OVC025
     FM242100 15015G24KT 3SM +RA BR OVC020=

USA.gov is the U.S. government's official web portal to all federal, state and local government web resources and services.